sensor_id;sensor_type;location;lat;lon;timestamp;pressure;altitude;pressure_sealevel;temperature;humidity
60465;BME280;46314;52.392;9.758;2023-04-25T00:01:02;99928.50;;;9.68;68.60
60465;BME280;46314;52.392;9.758;2023-04-25T00:03:30;99926.38;;;9.64;68.71
60465;BME280;46314;52.392;9.758;2023-04-25T00:05:57;99930.22;;;10.00;67.43
60465;BME280;46314;52.392;9.758;2023-04-25T00:08:24;99920.00;;;9.86;67.30
60465;BME280;46314;52.392;9.758;2023-04-25T00:10:51;99925.41;;;9.46;69.12
60465;BME280;46314;52.392;9.758;2023-04-25T00:13:17;99925.81;;;9.40;69.51
60465;BME280;46314;52.392;9.758;2023-04-25T00:15:44;99923.91;;;10.08;66.51
60465;BME280;46314;52.392;9.758;2023-04-25T00:18:10;99930.56;;;9.84;67.22
60465;BME280;46314;52.392;9.758;2023-04-25T00:20:38;99929.56;;;9.58;68.23
60465;BME280;46314;52.392;9.758;2023-04-25T00:23:04;99932.47;;;9.75;68.25
60465;BME280;46314;52.392;9.758;2023-04-25T00:25:31;99938.81;;;9.98;67.21
60465;BME280;46314;52.392;9.758;2023-04-25T00:27:58;99941.31;;;9.63;67.64
60465;BME280;46314;52.392;9.758;2023-04-25T00:30:24;99939.13;;;10.19;65.72
60465;BME280;46314;52.392;9.758;2023-04-25T00:32:51;99941.84;;;9.88;67.18
60465;BME280;46314;52.392;9.758;2023-04-25T00:35:17;99935.31;;;10.07;66.83
60465;BME280;46314;52.392;9.758;2023-04-25T00:37:45;99937.28;;;9.83;67.28
60465;BME280;46314;52.392;9.758;2023-04-25T00:40:12;99929.88;;;9.79;67.91
60465;BME280;46314;52.392;9.758;2023-04-25T00:42:39;99924.66;;;10.22;66.17
60465;BME280;46314;52.392;9.758;2023-04-25T00:45:09;99936.09;;;10.30;65.46
60465;BME280;46314;52.392;9.758;2023-04-25T00:47:39;99932.41;;;10.34;65.40
60465;BME280;46314;52.392;9.758;2023-04-25T00:50:07;99926.13;;;9.75;67.81
60465;BME280;46314;52.392;9.758;2023-04-25T00:52:34;99927.72;;;9.53;68.05
60465;BME280;46314;52.392;9.758;2023-04-25T00:55:02;99931.25;;;9.90;66.54
60465;BME280;46314;52.392;9.758;2023-04-25T00:57:29;99925.53;;;9.86;66.93
60465;BME280;46314;52.392;9.758;2023-04-25T00:59:55;99929.59;;;10.03;66.84
60465;BME280;46314;52.392;9.758;2023-04-25T01:02:22;99921.94;;;9.63;67.76
60465;BME280;46314;52.392;9.758;2023-04-25T01:04:49;99921.50;;;9.70;67.19
60465;BME280;46314;52.392;9.758;2023-04-25T01:07:16;99924.22;;;9.84;66.62
60465;BME280;46314;52.392;9.758;2023-04-25T01:09:42;99926.56;;;9.32;68.75
60465;BME280;46314;52.392;9.758;2023-04-25T01:12:10;99927.75;;;9.98;66.83
60465;BME280;46314;52.392;9.758;2023-04-25T01:14:37;99919.56;;;9.93;66.73
60465;BME280;46314;52.392;9.758;2023-04-25T01:17:04;99919.81;;;10.05;66.62
60465;BME280;46314;52.392;9.758;2023-04-25T01:19:31;99915.03;;;9.97;66.57
60465;BME280;46314;52.392;9.758;2023-04-25T01:21:58;99922.34;;;9.93;67.17
60465;BME280;46314;52.392;9.758;2023-04-25T01:24:25;99911.06;;;10.12;66.24
60465;BME280;46314;52.392;9.758;2023-04-25T01:26:52;99924.09;;;10.12;66.55
60465;BME280;46314;52.392;9.758;2023-04-25T01:29:20;99916.09;;;9.65;68.36
60465;BME280;46314;52.392;9.758;2023-04-25T01:31:46;99919.56;;;9.93;67.57
60465;BME280;46314;52.392;9.758;2023-04-25T01:34:13;99920.06;;;9.95;67.63
60465;BME280;46314;52.392;9.758;2023-04-25T01:36:40;99915.97;;;9.93;67.75
60465;BME280;46314;52.392;9.758;2023-04-25T01:39:08;99913.94;;;9.62;67.75
60465;BME280;46314;52.392;9.758;2023-04-25T01:41:35;99906.25;;;9.73;67.72
60465;BME280;46314;52.392;9.758;2023-04-25T01:44:02;99917.69;;;9.57;68.59
60465;BME280;46314;52.392;9.758;2023-04-25T01:46:29;99916.03;;;9.56;68.54
60465;BME280;46314;52.392;9.758;2023-04-25T01:48:55;99921.50;;;9.70;68.38
60465;BME280;46314;52.392;9.758;2023-04-25T01:51:22;99921.56;;;9.56;68.31
60465;BME280;46314;52.392;9.758;2023-04-25T01:53:48;99927.66;;;8.94;70.51
60465;BME280;46314;52.392;9.758;2023-04-25T01:56:17;99926.84;;;9.44;70.24
60465;BME280;46314;52.392;9.758;2023-04-25T01:58:43;99932.25;;;9.49;70.00
60465;BME280;46314;52.392;9.758;2023-04-25T02:01:10;99934.94;;;9.77;68.90
60465;BME280;46314;52.392;9.758;2023-04-25T02:03:36;99939.06;;;9.29;70.29
60465;BME280;46314;52.392;9.758;2023-04-25T02:06:03;99937.25;;;9.61;70.26
60465;BME280;46314;52.392;9.758;2023-04-25T02:08:30;99938.25;;;9.28;72.28
60465;BME280;46314;52.392;9.758;2023-04-25T02:10:56;99939.25;;;9.46;72.67
60465;BME280;46314;52.392;9.758;2023-04-25T02:13:24;99952.25;;;8.96;75.78
60465;BME280;46314;52.392;9.758;2023-04-25T02:15:51;99954.63;;;9.39;73.70
60465;BME280;46314;52.392;9.758;2023-04-25T02:18:30;99956.19;;;9.17;75.39
60465;BME280;46314;52.392;9.758;2023-04-25T02:20:57;99955.41;;;8.89;76.37
60465;BME280;46314;52.392;9.758;2023-04-25T02:23:24;99955.91;;;9.19;75.62
60465;BME280;46314;52.392;9.758;2023-04-25T02:25:50;99964.00;;;9.01;74.98
60465;BME280;46314;52.392;9.758;2023-04-25T02:28:18;99967.97;;;8.21;77.41
60465;BME280;46314;52.392;9.758;2023-04-25T02:30:45;99969.75;;;9.05;76.03
60465;BME280;46314;52.392;9.758;2023-04-25T02:33:12;99975.78;;;8.93;75.76
60465;BME280;46314;52.392;9.758;2023-04-25T02:35:38;99979.78;;;8.73;77.00
60465;BME280;46314;52.392;9.758;2023-04-25T02:38:04;99985.31;;;9.01;75.54
60465;BME280;46314;52.392;9.758;2023-04-25T02:40:31;99983.34;;;9.29;74.11
60465;BME280;46314;52.392;9.758;2023-04-25T02:42:57;99993.09;;;8.85;73.50
60465;BME280;46314;52.392;9.758;2023-04-25T02:45:24;99986.81;;;9.35;71.20
60465;BME280;46314;52.392;9.758;2023-04-25T02:47:51;99988.28;;;9.04;71.17
60465;BME280;46314;52.392;9.758;2023-04-25T02:50:18;99985.81;;;9.67;69.73
60465;BME280;46314;52.392;9.758;2023-04-25T02:52:44;99981.78;;;9.37;69.41
60465;BME280;46314;52.392;9.758;2023-04-25T02:55:11;99989.06;;;9.46;69.58
60465;BME280;46314;52.392;9.758;2023-04-25T02:57:38;99993.59;;;9.28;69.23
60465;BME280;46314;52.392;9.758;2023-04-25T03:00:06;99993.63;;;9.15;70.67
60465;BME280;46314;52.392;9.758;2023-04-25T03:02:32;99986.38;;;9.55;68.45
60465;BME280;46314;52.392;9.758;2023-04-25T03:05:00;99995.75;;;9.82;67.50
60465;BME280;46314;52.392;9.758;2023-04-25T03:07:26;99989.31;;;8.95;69.89
60465;BME280;46314;52.392;9.758;2023-04-25T03:09:53;99990.75;;;8.78;71.93
60465;BME280;46314;52.392;9.758;2023-04-25T03:12:19;99994.53;;;9.10;70.27
60465;BME280;46314;52.392;9.758;2023-04-25T03:14:46;99992.28;;;8.98;71.79
60465;BME280;46314;52.392;9.758;2023-04-25T03:17:12;99994.91;;;8.62;72.15
60465;BME280;46314;52.392;9.758;2023-04-25T03:19:39;100004.63;;;8.59;73.14
60465;BME280;46314;52.392;9.758;2023-04-25T03:22:06;99996.88;;;8.75;72.48
60465;BME280;46314;52.392;9.758;2023-04-25T03:24:33;99989.66;;;8.13;74.40
60465;BME280;46314;52.392;9.758;2023-04-25T03:26:59;100003.25;;;9.17;70.72
60465;BME280;46314;52.392;9.758;2023-04-25T03:29:26;100003.81;;;9.42;68.54
60465;BME280;46314;52.392;9.758;2023-04-25T03:31:52;100012.75;;;9.11;70.37
60465;BME280;46314;52.392;9.758;2023-04-25T03:34:18;100010.47;;;9.41;68.90
60465;BME280;46314;52.392;9.758;2023-04-25T03:36:45;100022.59;;;9.45;69.40
60465;BME280;46314;52.392;9.758;2023-04-25T03:39:13;100019.28;;;9.57;68.57
60465;BME280;46314;52.392;9.758;2023-04-25T03:41:39;100018.38;;;9.20;70.68
60465;BME280;46314;52.392;9.758;2023-04-25T03:44:05;100031.22;;;9.29;70.10
60465;BME280;46314;52.392;9.758;2023-04-25T03:46:32;100037.25;;;9.45;69.37
60465;BME280;46314;52.392;9.758;2023-04-25T03:48:58;100036.03;;;9.24;69.47
60465;BME280;46314;52.392;9.758;2023-04-25T03:51:25;100039.28;;;8.98;71.21
60465;BME280;46314;52.392;9.758;2023-04-25T03:53:52;100051.38;;;8.88;70.69
60465;BME280;46314;52.392;9.758;2023-04-25T03:56:20;100039.81;;;9.56;68.98
60465;BME280;46314;52.392;9.758;2023-04-25T03:58:46;100044.94;;;9.21;69.38
60465;BME280;46314;52.392;9.758;2023-04-25T04:01:13;100050.56;;;9.57;68.81
60465;BME280;46314;52.392;9.758;2023-04-25T04:03:39;100045.75;;;9.07;68.55
60465;BME280;46314;52.392;9.758;2023-04-25T04:06:07;100051.38;;;8.88;70.59
60465;BME280;46314;52.392;9.758;2023-04-25T04:08:33;100056.84;;;8.61;70.56
60465;BME280;46314;52.392;9.758;2023-04-25T04:11:00;100053.66;;;9.14;68.28
60465;BME280;46314;52.392;9.758;2023-04-25T04:13:28;100053.78;;;8.62;69.83
60465;BME280;46314;52.392;9.758;2023-04-25T04:15:55;100061.25;;;9.22;68.14
60465;BME280;46314;52.392;9.758;2023-04-25T04:18:22;100053.53;;;8.45;69.34
60465;BME280;46314;52.392;9.758;2023-04-25T04:20:48;100061.03;;;8.58;69.57
60465;BME280;46314;52.392;9.758;2023-04-25T04:23:14;100066.03;;;8.89;68.27
60465;BME280;46314;52.392;9.758;2023-04-25T04:25:41;100068.75;;;8.75;67.85
60465;BME280;46314;52.392;9.758;2023-04-25T04:28:07;100066.66;;;9.14;66.41
60465;BME280;46314;52.392;9.758;2023-04-25T04:30:35;100059.50;;;9.40;65.53
60465;BME280;46314;52.392;9.758;2023-04-25T04:33:02;100059.88;;;8.26;67.61
60465;BME280;46314;52.392;9.758;2023-04-25T04:35:29;100062.56;;;9.11;65.94
60465;BME280;46314;52.392;9.758;2023-04-25T04:37:55;100070.56;;;9.54;64.65
60465;BME280;46314;52.392;9.758;2023-04-25T04:40:22;100075.56;;;9.66;63.42
60465;BME280;46314;52.392;9.758;2023-04-25T04:42:48;100082.72;;;9.81;61.80
60465;BME280;46314;52.392;9.758;2023-04-25T04:45:14;100081.63;;;9.54;62.26
60465;BME280;46314;52.392;9.758;2023-04-25T04:47:42;100082.13;;;9.56;62.73
60465;BME280;46314;52.392;9.758;2023-04-25T04:50:10;100085.84;;;9.38;63.38
60465;BME280;46314;52.392;9.758;2023-04-25T04:52:37;100089.81;;;9.18;63.69
60465;BME280;46314;52.392;9.758;2023-04-25T04:55:05;100093.69;;;9.86;61.48
60465;BME280;46314;52.392;9.758;2023-04-25T04:57:32;100094.31;;;9.69;61.98
60465;BME280;46314;52.392;9.758;2023-04-25T04:59:58;100092.28;;;8.21;65.09
60465;BME280;46314;52.392;9.758;2023-04-25T05:02:25;100103.81;;;8.80;64.37
60465;BME280;46314;52.392;9.758;2023-04-25T05:04:53;100103.28;;;9.52;62.11
60465;BME280;46314;52.392;9.758;2023-04-25T05:07:20;100103.28;;;9.52;62.96
60465;BME280;46314;52.392;9.758;2023-04-25T05:09:46;100116.19;;;9.43;62.36
60465;BME280;46314;52.392;9.758;2023-04-25T05:12:13;100117.63;;;9.68;61.42
60465;BME280;46314;52.392;9.758;2023-04-25T05:14:39;100114.34;;;9.80;61.17
60465;BME280;46314;52.392;9.758;2023-04-25T05:17:06;100110.72;;;9.65;62.43
60465;BME280;46314;52.392;9.758;2023-04-25T05:19:32;100121.50;;;9.53;61.22
60465;BME280;46314;52.392;9.758;2023-04-25T05:22:00;100119.56;;;8.79;63.98
60465;BME280;46314;52.392;9.758;2023-04-25T05:24:26;100120.47;;;9.21;61.94
60465;BME280;46314;52.392;9.758;2023-04-25T05:26:53;100128.06;;;9.29;61.17
60465;BME280;46314;52.392;9.758;2023-04-25T05:29:19;100124.81;;;9.55;61.39
60465;BME280;46314;52.392;9.758;2023-04-25T05:31:46;100139.13;;;8.83;62.02
60465;BME280;46314;52.392;9.758;2023-04-25T05:34:12;100138.41;;;9.93;60.03
60465;BME280;46314;52.392;9.758;2023-04-25T05:36:38;100134.50;;;10.45;58.13
60465;BME280;46314;52.392;9.758;2023-04-25T05:39:06;100142.03;;;10.67;56.88
60465;BME280;46314;52.392;9.758;2023-04-25T05:41:32;100142.63;;;10.04;58.83
60465;BME280;46314;52.392;9.758;2023-04-25T05:43:59;100157.75;;;10.21;57.80
60465;BME280;46314;52.392;9.758;2023-04-25T05:46:26;100154.44;;;10.69;56.45
60465;BME280;46314;52.392;9.758;2023-04-25T05:48:52;100150.56;;;10.34;58.04
60465;BME280;46314;52.392;9.758;2023-04-25T05:51:18;100161.09;;;10.82;56.07
60465;BME280;46314;52.392;9.758;2023-04-25T05:53:45;100158.13;;;11.01;53.93
60465;BME280;46314;52.392;9.758;2023-04-25T05:56:13;100168.00;;;11.47;53.36
60465;BME280;46314;52.392;9.758;2023-04-25T05:58:39;100162.16;;;11.26;53.65
60465;BME280;46314;52.392;9.758;2023-04-25T06:01:06;100161.34;;;10.35;55.43
60465;BME280;46314;52.392;9.758;2023-04-25T06:03:32;100173.50;;;10.48;56.11
60465;BME280;46314;52.392;9.758;2023-04-25T06:05:59;100162.00;;;10.55;55.94
60465;BME280;46314;52.392;9.758;2023-04-25T06:08:26;100178.81;;;10.22;56.70
60465;BME280;46314;52.392;9.758;2023-04-25T06:10:52;100185.78;;;10.19;56.69
60465;BME280;46314;52.392;9.758;2023-04-25T06:13:20;100175.94;;;10.86;55.77
60465;BME280;46314;52.392;9.758;2023-04-25T06:15:47;100182.25;;;11.01;55.02
60465;BME280;46314;52.392;9.758;2023-04-25T06:18:14;100184.22;;;10.77;55.12
60465;BME280;46314;52.392;9.758;2023-04-25T06:20:40;100194.91;;;10.34;56.35
60465;BME280;46314;52.392;9.758;2023-04-25T06:23:06;100192.34;;;10.37;55.21
60465;BME280;46314;52.392;9.758;2023-04-25T06:25:33;100198.16;;;10.86;54.92
60465;BME280;46314;52.392;9.758;2023-04-25T06:27:59;100187.47;;;10.79;54.74
60465;BME280;46314;52.392;9.758;2023-04-25T06:30:27;100193.47;;;10.95;54.66
60465;BME280;46314;52.392;9.758;2023-04-25T06:32:54;100193.66;;;10.54;55.51
60465;BME280;46314;52.392;9.758;2023-04-25T06:35:20;100201.63;;;11.46;53.26
60465;BME280;46314;52.392;9.758;2023-04-25T06:37:47;100196.13;;;11.54;53.19
60465;BME280;46314;52.392;9.758;2023-04-25T06:40:13;100196.34;;;11.35;53.23
60465;BME280;46314;52.392;9.758;2023-04-25T06:42:39;100200.59;;;12.04;51.43
60465;BME280;46314;52.392;9.758;2023-04-25T06:45:07;100196.13;;;11.54;51.12
60465;BME280;46314;52.392;9.758;2023-04-25T06:47:35;100199.16;;;11.75;51.42
60465;BME280;46314;52.392;9.758;2023-04-25T06:50:02;100207.47;;;12.07;50.63
60465;BME280;46314;52.392;9.758;2023-04-25T06:52:28;100201.41;;;11.65;50.95
60465;BME280;46314;52.392;9.758;2023-04-25T06:54:55;100203.69;;;12.03;50.25
60465;BME280;46314;52.392;9.758;2023-04-25T06:57:21;100208.31;;;11.45;51.89
60465;BME280;46314;52.392;9.758;2023-04-25T06:59:47;100210.28;;;11.44;50.94
60465;BME280;46314;52.392;9.758;2023-04-25T07:02:14;100211.34;;;11.03;51.91
60465;BME280;46314;52.392;9.758;2023-04-25T07:04:42;100215.38;;;11.51;51.68
60465;BME280;46314;52.392;9.758;2023-04-25T07:07:08;100215.44;;;11.91;49.80
60465;BME280;46314;52.392;9.758;2023-04-25T07:09:35;100211.63;;;11.47;50.97
60465;BME280;46314;52.392;9.758;2023-04-25T07:12:01;100204.00;;;10.85;52.26
60465;BME280;46314;52.392;9.758;2023-04-25T07:14:28;100212.59;;;10.60;53.23
60465;BME280;46314;52.392;9.758;2023-04-25T07:16:54;100220.72;;;10.57;52.31
60465;BME280;46314;52.392;9.758;2023-04-25T07:19:21;100227.53;;;10.51;53.00
60465;BME280;46314;52.392;9.758;2023-04-25T07:21:49;100227.53;;;10.51;52.98
60465;BME280;46314;52.392;9.758;2023-04-25T07:24:17;100227.56;;;10.37;53.88
60465;BME280;46314;52.392;9.758;2023-04-25T07:26:44;100227.47;;;10.14;53.85
60465;BME280;46314;52.392;9.758;2023-04-25T07:29:10;100231.59;;;10.67;53.65
60465;BME280;46314;52.392;9.758;2023-04-25T07:31:37;100236.25;;;10.58;53.42
60465;BME280;46314;52.392;9.758;2023-04-25T07:34:03;100230.53;;;11.13;51.13
60465;BME280;46314;52.392;9.758;2023-04-25T07:36:30;100232.81;;;10.75;52.56
60465;BME280;46314;52.392;9.758;2023-04-25T07:38:57;100255.69;;;10.16;52.32
60465;BME280;46314;52.392;9.758;2023-04-25T07:41:24;100243.28;;;10.78;51.45
60465;BME280;46314;52.392;9.758;2023-04-25T07:43:50;100243.94;;;11.20;50.19
60465;BME280;46314;52.392;9.758;2023-04-25T07:46:17;100240.84;;;10.76;50.12
60465;BME280;46314;52.392;9.758;2023-04-25T07:48:43;100246.69;;;10.97;49.84
60465;BME280;46314;52.392;9.758;2023-04-25T07:51:10;100244.78;;;11.52;49.32
60465;BME280;46314;52.392;9.758;2023-04-25T07:53:37;100262.34;;;10.57;51.23
60465;BME280;46314;52.392;9.758;2023-04-25T07:56:05;100261.94;;;11.85;48.83
60465;BME280;46314;52.392;9.758;2023-04-25T07:58:32;100257.66;;;11.48;48.39
60465;BME280;46314;52.392;9.758;2023-04-25T08:00:58;100262.84;;;12.52;46.21
60465;BME280;46314;52.392;9.758;2023-04-25T08:03:25;100258.97;;;12.71;45.19
60465;BME280;46314;52.392;9.758;2023-04-25T08:05:52;100268.44;;;12.61;45.61
60465;BME280;46314;52.392;9.758;2023-04-25T08:08:18;100263.53;;;12.49;44.08
60465;BME280;46314;52.392;9.758;2023-04-25T08:10:45;100266.16;;;12.80;44.53
60465;BME280;46314;52.392;9.758;2023-04-25T08:13:13;100272.00;;;11.95;45.59
60465;BME280;46314;52.392;9.758;2023-04-25T08:15:40;100270.78;;;13.37;41.64
60465;BME280;46314;52.392;9.758;2023-04-25T08:18:06;100274.38;;;14.32;39.16
60465;BME280;46314;52.392;9.758;2023-04-25T08:20:33;100278.75;;;13.65;39.49
60465;BME280;46314;52.392;9.758;2023-04-25T08:22:59;100274.03;;;13.04;41.69
60465;BME280;46314;52.392;9.758;2023-04-25T08:25:25;100279.31;;;11.14;45.15
60465;BME280;46314;52.392;9.758;2023-04-25T08:27:52;100274.19;;;13.17;43.05
60465;BME280;46314;52.392;9.758;2023-04-25T08:30:20;100273.25;;;11.89;43.54
60465;BME280;46314;52.392;9.758;2023-04-25T08:32:47;100277.81;;;11.85;43.51
60465;BME280;46314;52.392;9.758;2023-04-25T08:35:13;100271.97;;;11.64;44.52
60465;BME280;46314;52.392;9.758;2023-04-25T08:37:40;100281.56;;;11.89;44.28
60465;BME280;46314;52.392;9.758;2023-04-25T08:40:08;100299.13;;;15.57;37.03
60465;BME280;46314;52.392;9.758;2023-04-25T08:42:37;100289.63;;;13.96;39.34
60465;BME280;46314;52.392;9.758;2023-04-25T08:45:05;100281.81;;;11.92;42.22
60465;BME280;46314;52.392;9.758;2023-04-25T08:47:34;100286.00;;;11.59;43.61
60465;BME280;46314;52.392;9.758;2023-04-25T08:50:02;100293.84;;;11.34;44.23
60465;BME280;46314;52.392;9.758;2023-04-25T08:52:34;100291.13;;;11.43;44.26
60465;BME280;46314;52.392;9.758;2023-04-25T08:55:01;100289.41;;;11.55;43.74
60465;BME280;46314;52.392;9.758;2023-04-25T08:57:29;100301.03;;;10.76;45.52
60465;BME280;46314;52.392;9.758;2023-04-25T08:59:56;100305.31;;;11.41;45.41
60465;BME280;46314;52.392;9.758;2023-04-25T09:02:24;100306.41;;;12.08;43.40
60465;BME280;46314;52.392;9.758;2023-04-25T09:04:53;100318.59;;;12.29;42.70
60465;BME280;46314;52.392;9.758;2023-04-25T09:07:20;100313.75;;;11.81;43.20
60465;BME280;46314;52.392;9.758;2023-04-25T09:09:46;100322.47;;;11.66;43.22
60465;BME280;46314;52.392;9.758;2023-04-25T09:12:13;100324.44;;;11.65;42.98
60465;BME280;46314;52.392;9.758;2023-04-25T09:14:39;100332.34;;;13.18;40.00
60465;BME280;46314;52.392;9.758;2023-04-25T09:17:05;100332.38;;;13.53;37.21
60465;BME280;46314;52.392;9.758;2023-04-25T09:19:33;100347.47;;;16.86;33.02
60465;BME280;46314;52.392;9.758;2023-04-25T09:22:08;100342.53;;;15.75;33.25
60465;BME280;46314;52.392;9.758;2023-04-25T09:24:36;100347.44;;;14.26;34.50
60465;BME280;46314;52.392;9.758;2023-04-25T09:27:04;100355.69;;;14.90;34.30
60465;BME280;46314;52.392;9.758;2023-04-25T09:29:31;100349.16;;;16.28;32.72
60465;BME280;46314;52.392;9.758;2023-04-25T09:32:12;100357.19;;;15.30;33.86
60465;BME280;46314;52.392;9.758;2023-04-25T09:34:39;100354.81;;;15.95;32.77
60465;BME280;46314;52.392;9.758;2023-04-25T09:37:07;100353.81;;;14.35;34.84
60465;BME280;46314;52.392;9.758;2023-04-25T09:39:33;100354.91;;;14.04;35.21
60465;BME280;46314;52.392;9.758;2023-04-25T09:42:00;100339.84;;;13.88;35.81
60465;BME280;46314;52.392;9.758;2023-04-25T09:44:26;100348.22;;;13.00;36.58
60465;BME280;46314;52.392;9.758;2023-04-25T09:46:53;100342.47;;;12.88;38.02
60465;BME280;46314;52.392;9.758;2023-04-25T09:49:20;100343.66;;;13.22;36.26
60465;BME280;46314;52.392;9.758;2023-04-25T09:51:54;100347.41;;;13.08;36.71
60465;BME280;46314;52.392;9.758;2023-04-25T09:54:22;100344.38;;;14.10;36.11
60465;BME280;46314;52.392;9.758;2023-04-25T09:56:51;100357.56;;;14.39;34.38
60465;BME280;46314;52.392;9.758;2023-04-25T09:59:19;100337.44;;;13.25;35.51
60465;BME280;46314;52.392;9.758;2023-04-25T10:01:48;100348.69;;;12.85;37.35
60465;BME280;46314;52.392;9.758;2023-04-25T10:04:22;100360.63;;;12.77;37.13
60465;BME280;46314;52.392;9.758;2023-04-25T10:06:51;100354.94;;;12.99;37.92
60465;BME280;46314;52.392;9.758;2023-04-25T10:09:21;100357.28;;;13.32;36.54
60465;BME280;46314;52.392;9.758;2023-04-25T10:11:51;100365.78;;;13.27;37.01
60465;BME280;46314;52.392;9.758;2023-04-25T10:14:19;100353.94;;;12.38;38.01
60465;BME280;46314;52.392;9.758;2023-04-25T10:16:47;100378.97;;;12.06;38.23
60465;BME280;46314;52.392;9.758;2023-04-25T10:19:13;100375.34;;;11.97;38.38
60465;BME280;46314;52.392;9.758;2023-04-25T10:21:48;100380.75;;;11.34;40.04
60465;BME280;46314;52.392;9.758;2023-04-25T10:24:16;100388.41;;;11.74;39.81
60465;BME280;46314;52.392;9.758;2023-04-25T10:26:44;100395.09;;;11.73;39.91
60465;BME280;46314;52.392;9.758;2023-04-25T10:29:10;100399.84;;;11.95;39.69
60465;BME280;46314;52.392;9.758;2023-04-25T10:31:45;100403.19;;;11.83;39.95
60465;BME280;46314;52.392;9.758;2023-04-25T10:34:11;100405.00;;;11.65;39.79
60465;BME280;46314;52.392;9.758;2023-04-25T10:36:38;100400.38;;;12.28;39.24
60465;BME280;46314;52.392;9.758;2023-04-25T10:39:05;100405.25;;;11.55;39.89
60465;BME280;46314;52.392;9.758;2023-04-25T10:41:46;100405.59;;;11.76;39.29
60465;BME280;46314;52.392;9.758;2023-04-25T10:44:14;100410.00;;;11.54;40.48
60465;BME280;46314;52.392;9.758;2023-04-25T10:46:40;100405.63;;;12.30;38.92
60465;BME280;46314;52.392;9.758;2023-04-25T10:49:08;100413.88;;;12.44;38.99
60465;BME280;46314;52.392;9.758;2023-04-25T10:51:36;100402.44;;;13.12;37.72
60465;BME280;46314;52.392;9.758;2023-04-25T10:54:22;100404.03;;;11.84;39.98
60465;BME280;46314;52.392;9.758;2023-04-25T10:56:51;100391.03;;;11.93;40.36
60465;BME280;46314;52.392;9.758;2023-04-25T10:59:18;100398.09;;;12.71;40.54
60465;BME280;46314;52.392;9.758;2023-04-25T11:01:46;100406.47;;;11.85;39.50
60465;BME280;46314;52.392;9.758;2023-04-25T11:04:20;100405.53;;;13.01;36.65
60465;BME280;46314;52.392;9.758;2023-04-25T11:06:58;100405.97;;;13.70;36.34
60465;BME280;46314;52.392;9.758;2023-04-25T11:09:32;100420.56;;;13.49;37.89
60465;BME280;46314;52.392;9.758;2023-04-25T11:12:00;100412.84;;;13.98;37.17
60465;BME280;46314;52.392;9.758;2023-04-25T11:14:26;100415.91;;;14.14;38.13
60465;BME280;46314;52.392;9.758;2023-04-25T11:16:53;100410.22;;;14.49;35.65
60465;BME280;46314;52.392;9.758;2023-04-25T11:19:20;100417.78;;;13.40;35.19
60465;BME280;46314;52.392;9.758;2023-04-25T11:21:46;100405.31;;;13.47;34.79
60465;BME280;46314;52.392;9.758;2023-04-25T11:24:13;100400.31;;;13.17;35.25
60465;BME280;46314;52.392;9.758;2023-04-25T11:26:41;100413.03;;;13.67;36.02
60465;BME280;46314;52.392;9.758;2023-04-25T11:29:08;100407.56;;;13.27;36.80
60465;BME280;46314;52.392;9.758;2023-04-25T11:31:35;100422.59;;;11.97;39.02
60465;BME280;46314;52.392;9.758;2023-04-25T11:34:02;100432.50;;;11.89;40.37
60465;BME280;46314;52.392;9.758;2023-04-25T11:36:28;100430.31;;;12.00;40.95
60465;BME280;46314;52.392;9.758;2023-04-25T11:38:55;100441.63;;;11.67;42.15
60465;BME280;46314;52.392;9.758;2023-04-25T11:41:22;100445.97;;;11.23;45.21
60465;BME280;46314;52.392;9.758;2023-04-25T11:43:48;100465.97;;;10.84;48.53
60465;BME280;46314;52.392;9.758;2023-04-25T11:46:16;100463.81;;;10.34;52.32
60465;BME280;46314;52.392;9.758;2023-04-25T11:48:43;100466.31;;;9.45;54.51
60465;BME280;46314;52.392;9.758;2023-04-25T11:51:09;100467.94;;;10.03;55.35
60465;BME280;46314;52.392;9.758;2023-04-25T11:53:36;100461.38;;;10.46;54.27
60465;BME280;46314;52.392;9.758;2023-04-25T11:56:09;100458.78;;;10.36;54.68
60465;BME280;46314;52.392;9.758;2023-04-25T11:58:53;100458.25;;;11.81;51.39
60465;BME280;46314;52.392;9.758;2023-04-25T12:01:27;100465.63;;;12.94;48.49
60465;BME280;46314;52.392;9.758;2023-04-25T12:03:58;100462.00;;;12.22;48.91
60465;BME280;46314;52.392;9.758;2023-04-25T12:06:37;100450.59;;;13.03;46.16
60465;BME280;46314;52.392;9.758;2023-04-25T12:09:04;100456.19;;;13.03;46.77
60465;BME280;46314;52.392;9.758;2023-04-25T12:11:31;100458.88;;;12.77;45.53
60465;BME280;46314;52.392;9.758;2023-04-25T12:14:01;100451.03;;;12.88;45.79
60465;BME280;46314;52.392;9.758;2023-04-25T12:16:29;100461.06;;;12.58;45.53
60465;BME280;46314;52.392;9.758;2023-04-25T12:18:56;100463.28;;;12.47;42.76
60465;BME280;46314;52.392;9.758;2023-04-25T12:21:22;100466.25;;;11.97;40.86
60465;BME280;46314;52.392;9.758;2023-04-25T12:23:49;100462.38;;;12.06;40.44
60465;BME280;46314;52.392;9.758;2023-04-25T12:26:17;100465.00;;;11.16;40.77
60465;BME280;46314;52.392;9.758;2023-04-25T12:28:45;100461.94;;;12.67;40.45
60465;BME280;46314;52.392;9.758;2023-04-25T12:31:11;100466.88;;;12.70;39.67
60465;BME280;46314;52.392;9.758;2023-04-25T12:33:39;100466.06;;;13.27;38.76
60465;BME280;46314;52.392;9.758;2023-04-25T12:36:06;100480.56;;;12.58;38.96
60465;BME280;46314;52.392;9.758;2023-04-25T12:38:36;100487.72;;;12.27;40.05
60465;BME280;46314;52.392;9.758;2023-04-25T12:41:03;100496.84;;;10.49;42.98
60465;BME280;46314;52.392;9.758;2023-04-25T12:43:29;100500.22;;;10.60;42.96
60465;BME280;46314;52.392;9.758;2023-04-25T12:45:56;100498.00;;;11.17;42.24
60465;BME280;46314;52.392;9.758;2023-04-25T12:48:23;100510.97;;;10.94;42.34
60465;BME280;46314;52.392;9.758;2023-04-25T12:50:51;100500.03;;;10.70;43.39
60465;BME280;46314;52.392;9.758;2023-04-25T12:53:19;100499.97;;;10.89;41.53
60465;BME280;46314;52.392;9.758;2023-04-25T12:55:46;100499.19;;;11.89;41.03
60465;BME280;46314;52.392;9.758;2023-04-25T12:58:13;100500.25;;;12.16;40.35